sensor_id;sensor_type;location;lat;lon;timestamp;P1;durP1;ratioP1;P2;durP2;ratioP2
17818;SDS011;9034;50.284;19.310;2022-12-19T00:00:06;86.05;;;26.60;;
17818;SDS011;9034;50.284;19.310;2022-12-19T00:01:17;87.78;;;25.33;;
17818;SDS011;9034;50.284;19.310;2022-12-19T00:02:21;75.68;;;27.20;;
17818;SDS011;9034;50.284;19.310;2022-12-19T00:03:24;65.72;;;24.60;;
17818;SDS011;9034;50.284;19.310;2022-12-19T00:04:28;77.50;;;25.60;;
17818;SDS011;9034;50.284;19.310;2022-12-19T00:05:30;76.85;;;24.17;;
17818;SDS011;9034;50.284;19.310;2022-12-19T00:06:33;75.15;;;25.35;;
17818;SDS011;9034;50.284;19.310;2022-12-19T00:07:36;63.85;;;22.90;;
17818;SDS011;9034;50.284;19.310;2022-12-19T00:08:39;80.53;;;25.20;;
17818;SDS011;9034;50.284;19.310;2022-12-19T00:09:42;67.82;;;23.17;;
17818;SDS011;9034;50.284;19.310;2022-12-19T00:10:54;64.40;;;23.25;;
17818;SDS011;9034;50.284;19.310;2022-12-19T00:11:59;77.55;;;23.13;;
17818;SDS011;9034;50.284;19.310;2022-12-19T00:13:00;70.90;;;23.15;;
17818;SDS011;9034;50.284;19.310;2022-12-19T00:14:04;71.53;;;25.50;;
17818;SDS011;9034;50.284;19.310;2022-12-19T00:15:06;64.15;;;20.83;;
17818;SDS011;9034;50.284;19.310;2022-12-19T00:16:10;74.07;;;23.50;;
17818;SDS011;9034;50.284;19.310;2022-12-19T00:17:16;69.30;;;22.42;;
17818;SDS011;9034;50.284;19.310;2022-12-19T00:18:19;61.55;;;23.27;;
17818;SDS011;9034;50.284;19.310;2022-12-19T00:19:21;73.15;;;23.20;;
17818;SDS011;9034;50.284;19.310;2022-12-19T00:20:24;64.70;;;20.73;;
17818;SDS011;9034;50.284;19.310;2022-12-19T00:21:27;68.53;;;21.40;;
17818;SDS011;9034;50.284;19.310;2022-12-19T00:22:31;61.83;;;20.75;;
17818;SDS011;9034;50.284;19.310;2022-12-19T00:23:33;64.18;;;22.60;;
17818;SDS011;9034;50.284;19.310;2022-12-19T00:24:36;71.47;;;23.15;;
17818;SDS011;9034;50.284;19.310;2022-12-19T00:25:38;58.47;;;21.13;;
17818;SDS011;9034;50.284;19.310;2022-12-19T00:26:49;59.50;;;22.48;;
17818;SDS011;9034;50.284;19.310;2022-12-19T00:27:51;59.53;;;22.02;;
17818;SDS011;9034;50.284;19.310;2022-12-19T00:28:55;61.05;;;23.70;;
17818;SDS011;9034;50.284;19.310;2022-12-19T00:29:58;62.80;;;21.80;;
17818;SDS011;9034;50.284;19.310;2022-12-19T00:31:01;60.45;;;23.08;;
17818;SDS011;9034;50.284;19.310;2022-12-19T00:32:04;74.38;;;24.90;;
17818;SDS011;9034;50.284;19.310;2022-12-19T00:33:10;66.97;;;24.70;;
17818;SDS011;9034;50.284;19.310;2022-12-19T00:34:12;64.22;;;24.67;;
17818;SDS011;9034;50.284;19.310;2022-12-19T00:35:15;68.53;;;23.80;;
17818;SDS011;9034;50.284;19.310;2022-12-19T00:36:18;67.88;;;24.67;;
17818;SDS011;9034;50.284;19.310;2022-12-19T00:37:23;71.65;;;24.63;;
17818;SDS011;9034;50.284;19.310;2022-12-19T00:38:25;70.72;;;25.35;;
17818;SDS011;9034;50.284;19.310;2022-12-19T00:39:28;65.60;;;24.23;;
17818;SDS011;9034;50.284;19.310;2022-12-19T00:40:30;65.40;;;24.00;;
17818;SDS011;9034;50.284;19.310;2022-12-19T00:41:33;71.30;;;24.85;;
17818;SDS011;9034;50.284;19.310;2022-12-19T00:42:36;71.28;;;24.45;;
17818;SDS011;9034;50.284;19.310;2022-12-19T00:43:39;64.03;;;24.10;;
17818;SDS011;9034;50.284;19.310;2022-12-19T00:44:42;64.82;;;22.98;;
17818;SDS011;9034;50.284;19.310;2022-12-19T00:45:44;65.55;;;22.38;;
17818;SDS011;9034;50.284;19.310;2022-12-19T00:46:47;63.40;;;24.55;;
17818;SDS011;9034;50.284;19.310;2022-12-19T00:47:53;62.13;;;23.02;;
17818;SDS011;9034;50.284;19.310;2022-12-19T00:48:57;54.53;;;22.08;;
17818;SDS011;9034;50.284;19.310;2022-12-19T00:50:00;62.72;;;22.55;;
17818;SDS011;9034;50.284;19.310;2022-12-19T00:51:02;56.50;;;21.08;;
17818;SDS011;9034;50.284;19.310;2022-12-19T00:52:07;59.53;;;21.58;;
17818;SDS011;9034;50.284;19.310;2022-12-19T00:53:09;57.05;;;21.27;;
17818;SDS011;9034;50.284;19.310;2022-12-19T00:54:12;54.22;;;20.80;;
17818;SDS011;9034;50.284;19.310;2022-12-19T00:55:15;65.05;;;21.98;;
17818;SDS011;9034;50.284;19.310;2022-12-19T00:56:20;57.47;;;20.75;;
17818;SDS011;9034;50.284;19.310;2022-12-19T00:57:23;51.97;;;20.88;;
17818;SDS011;9034;50.284;19.310;2022-12-19T00:58:26;62.58;;;22.02;;
17818;SDS011;9034;50.284;19.310;2022-12-19T00:59:28;49.97;;;19.63;;
17818;SDS011;9034;50.284;19.310;2022-12-19T01:00:30;59.30;;;21.33;;
17818;SDS011;9034;50.284;19.310;2022-12-19T01:01:33;59.25;;;21.88;;
17818;SDS011;9034;50.284;19.310;2022-12-19T01:02:39;64.20;;;21.67;;
17818;SDS011;9034;50.284;19.310;2022-12-19T01:03:41;60.97;;;23.30;;
17818;SDS011;9034;50.284;19.310;2022-12-19T01:05:06;51.53;;;19.98;;
17818;SDS011;9034;50.284;19.310;2022-12-19T01:06:09;59.00;;;21.35;;
17818;SDS011;9034;50.284;19.310;2022-12-19T01:07:12;53.67;;;21.20;;
17818;SDS011;9034;50.284;19.310;2022-12-19T01:08:14;51.97;;;21.25;;
17818;SDS011;9034;50.284;19.310;2022-12-19T01:09:40;58.80;;;22.35;;
17818;SDS011;9034;50.284;19.310;2022-12-19T01:10:43;51.22;;;22.00;;
17818;SDS011;9034;50.284;19.310;2022-12-19T01:11:46;54.28;;;21.48;;
17818;SDS011;9034;50.284;19.310;2022-12-19T01:13:06;55.35;;;22.00;;
17818;SDS011;9034;50.284;19.310;2022-12-19T01:14:09;53.88;;;20.88;;
17818;SDS011;9034;50.284;19.310;2022-12-19T01:15:18;55.95;;;20.98;;
17818;SDS011;9034;50.284;19.310;2022-12-19T01:16:22;63.15;;;20.83;;
17818;SDS011;9034;50.284;19.310;2022-12-19T01:17:25;52.75;;;20.02;;
17818;SDS011;9034;50.284;19.310;2022-12-19T01:18:28;60.75;;;21.02;;
17818;SDS011;9034;50.284;19.310;2022-12-19T01:19:32;64.78;;;22.88;;
17818;SDS011;9034;50.284;19.310;2022-12-19T01:20:44;54.72;;;20.45;;
17818;SDS011;9034;50.284;19.310;2022-12-19T01:21:48;54.90;;;21.42;;
17818;SDS011;9034;50.284;19.310;2022-12-19T01:22:50;60.05;;;23.65;;
17818;SDS011;9034;50.284;19.310;2022-12-19T01:23:53;57.28;;;21.58;;
17818;SDS011;9034;50.284;19.310;2022-12-19T01:24:56;53.70;;;19.83;;
17818;SDS011;9034;50.284;19.310;2022-12-19T01:25:59;54.67;;;21.35;;
17818;SDS011;9034;50.284;19.310;2022-12-19T01:27:01;58.72;;;21.83;;
17818;SDS011;9034;50.284;19.310;2022-12-19T01:28:05;57.80;;;21.77;;
17818;SDS011;9034;50.284;19.310;2022-12-19T01:29:08;55.42;;;21.30;;
17818;SDS011;9034;50.284;19.310;2022-12-19T01:30:11;61.97;;;22.10;;
17818;SDS011;9034;50.284;19.310;2022-12-19T01:31:14;55.80;;;20.77;;
17818;SDS011;9034;50.284;19.310;2022-12-19T01:32:19;54.88;;;20.98;;
17818;SDS011;9034;50.284;19.310;2022-12-19T01:33:21;56.92;;;20.67;;
17818;SDS011;9034;50.284;19.310;2022-12-19T01:34:24;51.00;;;20.17;;
17818;SDS011;9034;50.284;19.310;2022-12-19T01:35:26;50.63;;;18.45;;
17818;SDS011;9034;50.284;19.310;2022-12-19T01:36:31;51.00;;;20.88;;
17818;SDS011;9034;50.284;19.310;2022-12-19T01:37:39;53.92;;;20.92;;
17818;SDS011;9034;50.284;19.310;2022-12-19T01:38:41;57.08;;;21.83;;
17818;SDS011;9034;50.284;19.310;2022-12-19T01:39:43;59.78;;;21.63;;
17818;SDS011;9034;50.284;19.310;2022-12-19T01:40:50;55.47;;;20.80;;
17818;SDS011;9034;50.284;19.310;2022-12-19T01:41:53;59.55;;;21.95;;
17818;SDS011;9034;50.284;19.310;2022-12-19T01:42:56;54.33;;;21.35;;
17818;SDS011;9034;50.284;19.310;2022-12-19T01:44:00;61.47;;;21.40;;
17818;SDS011;9034;50.284;19.310;2022-12-19T01:46:33;53.30;;;20.25;;
17818;SDS011;9034;50.284;19.310;2022-12-19T01:47:39;50.47;;;21.15;;
17818;SDS011;9034;50.284;19.310;2022-12-19T01:48:48;52.67;;;18.73;;
17818;SDS011;9034;50.284;19.310;2022-12-19T01:49:52;53.97;;;20.45;;
17818;SDS011;9034;50.284;19.310;2022-12-19T01:50:55;57.88;;;20.85;;
17818;SDS011;9034;50.284;19.310;2022-12-19T01:52:05;52.45;;;20.38;;
17818;SDS011;9034;50.284;19.310;2022-12-19T01:53:09;46.65;;;21.25;;
17818;SDS011;9034;50.284;19.310;2022-12-19T01:54:14;53.78;;;20.02;;
17818;SDS011;9034;50.284;19.310;2022-12-19T01:55:18;62.63;;;21.23;;
17818;SDS011;9034;50.284;19.310;2022-12-19T01:56:25;46.60;;;19.08;;
17818;SDS011;9034;50.284;19.310;2022-12-19T01:57:29;53.47;;;21.30;;
17818;SDS011;9034;50.284;19.310;2022-12-19T01:58:35;59.42;;;21.83;;
17818;SDS011;9034;50.284;19.310;2022-12-19T01:59:39;48.92;;;19.77;;
17818;SDS011;9034;50.284;19.310;2022-12-19T02:00:45;47.40;;;20.00;;
17818;SDS011;9034;50.284;19.310;2022-12-19T02:01:47;53.25;;;21.65;;
17818;SDS011;9034;50.284;19.310;2022-12-19T02:02:57;58.72;;;22.48;;
17818;SDS011;9034;50.284;19.310;2022-12-19T02:04:01;58.30;;;22.08;;
17818;SDS011;9034;50.284;19.310;2022-12-19T02:05:05;60.63;;;20.73;;
17818;SDS011;9034;50.284;19.310;2022-12-19T02:06:08;50.63;;;20.20;;
17818;SDS011;9034;50.284;19.310;2022-12-19T02:07:13;57.10;;;22.77;;
17818;SDS011;9034;50.284;19.310;2022-12-19T02:08:17;57.25;;;21.05;;
17818;SDS011;9034;50.284;19.310;2022-12-19T02:09:23;47.90;;;19.15;;
17818;SDS011;9034;50.284;19.310;2022-12-19T02:10:26;47.88;;;18.80;;
17818;SDS011;9034;50.284;19.310;2022-12-19T02:11:29;60.20;;;21.67;;
17818;SDS011;9034;50.284;19.310;2022-12-19T02:12:34;57.33;;;21.05;;
17818;SDS011;9034;50.284;19.310;2022-12-19T02:13:38;50.20;;;18.73;;
17818;SDS011;9034;50.284;19.310;2022-12-19T02:14:43;58.78;;;19.92;;
17818;SDS011;9034;50.284;19.310;2022-12-19T02:15:48;50.25;;;19.50;;
17818;SDS011;9034;50.284;19.310;2022-12-19T02:16:58;56.95;;;22.65;;
17818;SDS011;9034;50.284;19.310;2022-12-19T02:18:07;54.80;;;20.20;;
17818;SDS011;9034;50.284;19.310;2022-12-19T02:20:57;53.55;;;19.85;;
17818;SDS011;9034;50.284;19.310;2022-12-19T02:22:08;50.50;;;20.83;;
17818;SDS011;9034;50.284;19.310;2022-12-19T02:25:16;45.65;;;18.88;;
17818;SDS011;9034;50.284;19.310;2022-12-19T02:26:37;47.10;;;19.33;;
17818;SDS011;9034;50.284;19.310;2022-12-19T02:29:31;48.75;;;19.70;;
17818;SDS011;9034;50.284;19.310;2022-12-19T02:30:54;43.92;;;17.08;;
17818;SDS011;9034;50.284;19.310;2022-12-19T02:32:14;49.40;;;19.17;;
17818;SDS011;9034;50.284;19.310;2022-12-19T02:33:39;50.20;;;20.05;;
17818;SDS011;9034;50.284;19.310;2022-12-19T02:34:44;51.78;;;18.02;;
17818;SDS011;9034;50.284;19.310;2022-12-19T02:35:52;48.72;;;17.90;;
17818;SDS011;9034;50.284;19.310;2022-12-19T02:36:58;56.67;;;21.17;;
17818;SDS011;9034;50.284;19.310;2022-12-19T02:38:07;51.15;;;19.13;;
17818;SDS011;9034;50.284;19.310;2022-12-19T02:39:16;48.20;;;18.80;;
17818;SDS011;9034;50.284;19.310;2022-12-19T02:40:20;50.15;;;17.55;;
17818;SDS011;9034;50.284;19.310;2022-12-19T02:41:27;45.03;;;18.20;;
17818;SDS011;9034;50.284;19.310;2022-12-19T02:42:49;48.25;;;19.92;;
17818;SDS011;9034;50.284;19.310;2022-12-19T02:43:55;50.35;;;18.05;;
17818;SDS011;9034;50.284;19.310;2022-12-19T02:45:02;44.13;;;19.15;;
17818;SDS011;9034;50.284;19.310;2022-12-19T02:46:09;40.88;;;17.73;;
17818;SDS011;9034;50.284;19.310;2022-12-19T02:47:13;46.28;;;19.70;;
17818;SDS011;9034;50.284;19.310;2022-12-19T02:48:17;52.67;;;19.45;;
17818;SDS011;9034;50.284;19.310;2022-12-19T02:49:20;52.67;;;19.58;;
17818;SDS011;9034;50.284;19.310;2022-12-19T02:50:38;60.30;;;21.95;;
17818;SDS011;9034;50.284;19.310;2022-12-19T02:51:41;45.25;;;20.25;;
17818;SDS011;9034;50.284;19.310;2022-12-19T02:52:45;56.58;;;21.40;;
17818;SDS011;9034;50.284;19.310;2022-12-19T02:53:48;55.42;;;22.10;;
17818;SDS011;9034;50.284;19.310;2022-12-19T02:54:53;56.78;;;21.77;;
17818;SDS011;9034;50.284;19.310;2022-12-19T02:56:04;46.97;;;18.77;;
17818;SDS011;9034;50.284;19.310;2022-12-19T02:57:18;46.17;;;19.15;;
17818;SDS011;9034;50.284;19.310;2022-12-19T02:58:37;45.42;;;21.48;;
17818;SDS011;9034;50.284;19.310;2022-12-19T02:59:51;48.97;;;20.48;;
17818;SDS011;9034;50.284;19.310;2022-12-19T03:01:02;56.88;;;20.92;;
17818;SDS011;9034;50.284;19.310;2022-12-19T03:02:15;65.47;;;23.05;;
17818;SDS011;9034;50.284;19.310;2022-12-19T03:03:27;53.67;;;21.80;;
17818;SDS011;9034;50.284;19.310;2022-12-19T03:04:39;52.15;;;21.90;;
17818;SDS011;9034;50.284;19.310;2022-12-19T03:05:48;60.35;;;21.20;;
17818;SDS011;9034;50.284;19.310;2022-12-19T03:06:59;53.72;;;20.90;;
17818;SDS011;9034;50.284;19.310;2022-12-19T03:08:06;57.92;;;21.08;;
17818;SDS011;9034;50.284;19.310;2022-12-19T03:09:13;53.05;;;20.15;;
17818;SDS011;9034;50.284;19.310;2022-12-19T03:10:19;50.08;;;20.50;;
17818;SDS011;9034;50.284;19.310;2022-12-19T03:11:26;54.05;;;20.85;;
17818;SDS011;9034;50.284;19.310;2022-12-19T03:12:33;52.88;;;21.42;;
17818;SDS011;9034;50.284;19.310;2022-12-19T03:13:41;52.30;;;19.77;;
17818;SDS011;9034;50.284;19.310;2022-12-19T03:14:45;47.78;;;19.23;;
17818;SDS011;9034;50.284;19.310;2022-12-19T03:15:49;53.70;;;18.67;;
17818;SDS011;9034;50.284;19.310;2022-12-19T03:16:52;53.13;;;20.35;;
17818;SDS011;9034;50.284;19.310;2022-12-19T03:17:56;51.40;;;18.50;;
17818;SDS011;9034;50.284;19.310;2022-12-19T03:19:00;50.03;;;21.27;;
17818;SDS011;9034;50.284;19.310;2022-12-19T03:20:21;43.90;;;18.13;;
17818;SDS011;9034;50.284;19.310;2022-12-19T03:21:29;52.03;;;19.40;;
17818;SDS011;9034;50.284;19.310;2022-12-19T03:22:33;48.00;;;19.23;;
17818;SDS011;9034;50.284;19.310;2022-12-19T03:23:36;50.13;;;19.35;;
17818;SDS011;9034;50.284;19.310;2022-12-19T03:24:40;52.90;;;19.42;;
17818;SDS011;9034;50.284;19.310;2022-12-19T03:25:43;47.97;;;18.88;;
17818;SDS011;9034;50.284;19.310;2022-12-19T03:26:48;45.30;;;18.95;;
17818;SDS011;9034;50.284;19.310;2022-12-19T03:27:52;54.90;;;19.33;;
17818;SDS011;9034;50.284;19.310;2022-12-19T03:28:57;43.50;;;18.27;;
17818;SDS011;9034;50.284;19.310;2022-12-19T03:30:02;49.30;;;19.15;;
17818;SDS011;9034;50.284;19.310;2022-12-19T03:31:07;51.33;;;18.63;;
17818;SDS011;9034;50.284;19.310;2022-12-19T03:32:11;44.70;;;18.40;;
17818;SDS011;9034;50.284;19.310;2022-12-19T03:33:17;41.33;;;17.27;;
17818;SDS011;9034;50.284;19.310;2022-12-19T03:34:20;45.55;;;18.15;;
17818;SDS011;9034;50.284;19.310;2022-12-19T03:35:26;47.63;;;18.40;;
17818;SDS011;9034;50.284;19.310;2022-12-19T03:36:31;46.67;;;19.02;;
17818;SDS011;9034;50.284;19.310;2022-12-19T03:37:36;45.63;;;19.13;;
17818;SDS011;9034;50.284;19.310;2022-12-19T03:38:39;49.65;;;19.55;;
17818;SDS011;9034;50.284;19.310;2022-12-19T03:39:47;49.92;;;18.75;;
17818;SDS011;9034;50.284;19.310;2022-12-19T03:40:50;48.50;;;17.48;;
17818;SDS011;9034;50.284;19.310;2022-12-19T03:41:54;46.10;;;19.10;;
17818;SDS011;9034;50.284;19.310;2022-12-19T03:43:16;44.85;;;19.10;;
17818;SDS011;9034;50.284;19.310;2022-12-19T03:44:18;42.88;;;17.70;;
17818;SDS011;9034;50.284;19.310;2022-12-19T03:45:24;38.58;;;16.75;;
17818;SDS011;9034;50.284;19.310;2022-12-19T03:46:30;49.28;;;18.55;;
17818;SDS011;9034;50.284;19.310;2022-12-19T03:47:34;50.38;;;17.42;;
17818;SDS011;9034;50.284;19.310;2022-12-19T03:48:40;46.58;;;19.33;;
17818;SDS011;9034;50.284;19.310;2022-12-19T03:49:44;49.00;;;18.95;;
17818;SDS011;9034;50.284;19.310;2022-12-19T03:50:51;50.83;;;17.63;;
17818;SDS011;9034;50.284;19.310;2022-12-19T03:51:58;48.55;;;17.65;;
17818;SDS011;9034;50.284;19.310;2022-12-19T03:53:05;55.00;;;20.60;;
17818;SDS011;9034;50.284;19.310;2022-12-19T03:54:13;59.30;;;20.80;;
17818;SDS011;9034;50.284;19.310;2022-12-19T03:55:18;50.15;;;20.10;;
17818;SDS011;9034;50.284;19.310;2022-12-19T03:56:24;55.08;;;21.90;;
17818;SDS011;9034;50.284;19.310;2022-12-19T03:57:33;49.55;;;20.42;;
17818;SDS011;9034;50.284;19.310;2022-12-19T03:58:37;53.03;;;18.38;;
17818;SDS011;9034;50.284;19.310;2022-12-19T03:59:43;48.95;;;19.05;;
17818;SDS011;9034;50.284;19.310;2022-12-19T04:00:46;46.00;;;19.63;;
17818;SDS011;9034;50.284;19.310;2022-12-19T04:01:50;50.47;;;19.05;;
17818;SDS011;9034;50.284;19.310;2022-12-19T04:02:53;55.63;;;18.95;;
17818;SDS011;9034;50.284;19.310;2022-12-19T04:03:59;50.72;;;19.40;;
17818;SDS011;9034;50.284;19.310;2022-12-19T04:05:03;46.40;;;19.77;;
17818;SDS011;9034;50.284;19.310;2022-12-19T04:06:12;59.72;;;19.17;;
17818;SDS011;9034;50.284;19.310;2022-12-19T04:07:15;47.92;;;18.30;;
17818;SDS011;9034;50.284;19.310;2022-12-19T04:08:18;47.83;;;19.20;;
17818;SDS011;9034;50.284;19.310;2022-12-19T04:09:21;51.20;;;18.60;;
17818;SDS011;9034;50.284;19.310;2022-12-19T04:10:25;57.80;;;20.20;;
17818;SDS011;9034;50.284;19.310;2022-12-19T04:11:29;50.55;;;19.00;;
17818;SDS011;9034;50.284;19.310;2022-12-19T04:12:36;48.03;;;19.65;;
17818;SDS011;9034;50.284;19.310;2022-12-19T04:13:42;52.40;;;20.95;;
17818;SDS011;9034;50.284;19.310;2022-12-19T04:14:49;57.17;;;20.88;;
17818;SDS011;9034;50.284;19.310;2022-12-19T04:15:53;57.47;;;21.88;;
17818;SDS011;9034;50.284;19.310;2022-12-19T04:17:02;62.53;;;22.35;;
17818;SDS011;9034;50.284;19.310;2022-12-19T04:18:08;54.75;;;21.63;;
17818;SDS011;9034;50.284;19.310;2022-12-19T04:19:17;57.42;;;21.25;;
17818;SDS011;9034;50.284;19.310;2022-12-19T04:20:20;57.13;;;20.45;;
17818;SDS011;9034;50.284;19.310;2022-12-19T04:21:26;54.83;;;20.60;;
17818;SDS011;9034;50.284;19.310;2022-12-19T04:22:31;60.78;;;21.10;;
17818;SDS011;9034;50.284;19.310;2022-12-19T04:23:38;53.13;;;21.85;;
17818;SDS011;9034;50.284;19.310;2022-12-19T04:24:42;52.63;;;20.35;;
17818;SDS011;9034;50.284;19.310;2022-12-19T04:25:48;59.90;;;19.27;;
17818;SDS011;9034;50.284;19.310;2022-12-19T04:27:11;65.05;;;21.02;;
17818;SDS011;9034;50.284;19.310;2022-12-19T04:28:16;43.60;;;20.17;;
17818;SDS011;9034;50.284;19.310;2022-12-19T04:29:19;63.63;;;21.25;;
17818;SDS011;9034;50.284;19.310;2022-12-19T04:30:23;52.80;;;20.13;;
17818;SDS011;9034;50.284;19.310;2022-12-19T04:31:26;64.35;;;24.02;;
17818;SDS011;9034;50.284;19.310;2022-12-19T04:32:29;61.28;;;21.15;;
17818;SDS011;9034;50.284;19.310;2022-12-19T04:33:34;59.38;;;21.75;;
17818;SDS011;9034;50.284;19.310;2022-12-19T04:34:39;54.78;;;21.23;;
17818;SDS011;9034;50.284;19.310;2022-12-19T04:35:43;59.38;;;21.85;;
17818;SDS011;9034;50.284;19.310;2022-12-19T04:36:46;61.47;;;22.70;;
17818;SDS011;9034;50.284;19.310;2022-12-19T04:37:50;54.45;;;21.27;;
17818;SDS011;9034;50.284;19.310;2022-12-19T04:38:52;53.03;;;21.05;;
17818;SDS011;9034;50.284;19.310;2022-12-19T04:39:55;52.88;;;19.70;;
17818;SDS011;9034;50.284;19.310;2022-12-19T04:40:57;61.95;;;21.52;;
17818;SDS011;9034;50.284;19.310;2022-12-19T04:42:00;56.60;;;19.85;;
17818;SDS011;9034;50.284;19.310;2022-12-19T04:43:02;64.75;;;21.23;;
17818;SDS011;9034;50.284;19.310;2022-12-19T04:44:05;51.63;;;20.55;;
17818;SDS011;9034;50.284;19.310;2022-12-19T04:45:08;54.03;;;20.60;;
17818;SDS011;9034;50.284;19.310;2022-12-19T04:46:12;55.80;;;20.67;;
17818;SDS011;9034;50.284;19.310;2022-12-19T04:47:14;48.15;;;19.40;;
17818;SDS011;9034;50.284;19.310;2022-12-19T04:48:17;65.85;;;21.50;;
17818;SDS011;9034;50.284;19.310;2022-12-19T04:49:39;61.35;;;21.40;;
17818;SDS011;9034;50.284;19.310;2022-12-19T04:50:42;57.53;;;20.80;;
17818;SDS011;9034;50.284;19.310;2022-12-19T04:51:45;47.88;;;20.35;;
17818;SDS011;9034;50.284;19.310;2022-12-19T04:52:48;57.15;;;20.75;;
17818;SDS011;9034;50.284;19.310;2022-12-19T04:53:56;59.63;;;21.88;;
17818;SDS011;9034;50.284;19.310;2022-12-19T04:54:59;71.22;;;22.42;;
17818;SDS011;9034;50.284;19.310;2022-12-19T04:56:01;69.50;;;24.40;;
17818;SDS011;9034;50.284;19.310;2022-12-19T04:57:04;61.42;;;24.08;;
17818;SDS011;9034;50.284;19.310;2022-12-19T04:58:06;62.35;;;24.35;;
17818;SDS011;9034;50.284;19.310;2022-12-19T04:59:09;58.25;;;22.80;;
17818;SDS011;9034;50.284;19.310;2022-12-19T05:00:12;58.67;;;22.20;;
17818;SDS011;9034;50.284;19.310;2022-12-19T05:01:15;66.38;;;23.88;;
17818;SDS011;9034;50.284;19.310;2022-12-19T05:02:19;62.45;;;22.20;;
17818;SDS011;9034;50.284;19.310;2022-12-19T05:03:22;72.30;;;24.67;;
17818;SDS011;9034;50.284;19.310;2022-12-19T05:04:24;61.55;;;24.48;;
17818;SDS011;9034;50.284;19.310;2022-12-19T05:05:29;77.63;;;26.00;;
17818;SDS011;9034;50.284;19.310;2022-12-19T05:06:31;82.00;;;27.15;;
17818;SDS011;9034;50.284;19.310;2022-12-19T05:07:34;81.75;;;26.38;;
17818;SDS011;9034;50.284;19.310;2022-12-19T05:08:37;83.68;;;26.67;;
17818;SDS011;9034;50.284;19.310;2022-12-19T05:09:41;79.97;;;27.23;;
17818;SDS011;9034;50.284;19.310;2022-12-19T05:10:44;91.22;;;30.23;;
17818;SDS011;9034;50.284;19.310;2022-12-19T05:11:46;78.72;;;26.58;;
17818;SDS011;9034;50.284;19.310;2022-12-19T05:12:49;74.10;;;24.63;;
17818;SDS011;9034;50.284;19.310;2022-12-19T05:13:51;84.78;;;26.88;;
17818;SDS011;9034;50.284;19.310;2022-12-19T05:14:54;76.15;;;27.05;;
17818;SDS011;9034;50.284;19.310;2022-12-19T05:15:57;75.53;;;26.55;;
17818;SDS011;9034;50.284;19.310;2022-12-19T05:17:00;82.25;;;25.35;;
17818;SDS011;9034;50.284;19.310;2022-12-19T05:18:02;80.50;;;26.90;;
17818;SDS011;9034;50.284;19.310;2022-12-19T05:19:06;75.22;;;26.35;;
17818;SDS011;9034;50.284;19.310;2022-12-19T05:20:08;72.47;;;25.58;;
17818;SDS011;9034;50.284;19.310;2022-12-19T05:21:13;79.40;;;25.23;;
17818;SDS011;9034;50.284;19.310;2022-12-19T05:22:15;73.32;;;25.90;;
17818;SDS011;9034;50.284;19.310;2022-12-19T05:23:18;70.50;;;23.95;;
17818;SDS011;9034;50.284;19.310;2022-12-19T05:24:20;90.07;;;28.67;;
17818;SDS011;9034;50.284;19.310;2022-12-19T05:25:24;73.55;;;26.17;;
17818;SDS011;9034;50.284;19.310;2022-12-19T05:26:26;70.35;;;23.77;;
17818;SDS011;9034;50.284;19.310;2022-12-19T05:27:29;75.68;;;24.63;;
17818;SDS011;9034;50.284;19.310;2022-12-19T05:28:31;75.07;;;26.25;;
17818;SDS011;9034;50.284;19.310;2022-12-19T05:29:35;76.57;;;27.42;;
17818;SDS011;9034;50.284;19.310;2022-12-19T05:30:37;76.38;;;25.60;;
17818;SDS011;9034;50.284;19.310;2022-12-19T05:31:40;74.93;;;25.42;;
17818;SDS011;9034;50.284;19.310;2022-12-19T05:32:43;78.75;;;27.75;;
17818;SDS011;9034;50.284;19.310;2022-12-19T05:33:46;78.13;;;24.33;;
17818;SDS011;9034;50.284;19.310;2022-12-19T05:34:49;65.93;;;25.13;;
17818;SDS011;9034;50.284;19.310;2022-12-19T05:35:51;71.95;;;25.38;;
17818;SDS011;9034;50.284;19.310;2022-12-19T05:36:55;73.25;;;25.08;;
17818;SDS011;9034;50.284;19.310;2022-12-19T05:37:58;74.68;;;26.42;;
17818;SDS011;9034;50.284;19.310;2022-12-19T05:39:00;76.95;;;26.45;;
17818;SDS011;9034;50.284;19.310;2022-12-19T05:40:04;73.30;;;25.83;;
17818;SDS011;9034;50.284;19.310;2022-12-19T05:41:07;71.40;;;23.95;;
17818;SDS011;9034;50.284;19.310;2022-12-19T05:42:10;73.53;;;25.48;;
17818;SDS011;9034;50.284;19.310;2022-12-19T05:43:13;71.85;;;23.88;;
17818;SDS011;9034;50.284;19.310;2022-12-19T05:44:16;67.30;;;24.85;;
17818;SDS011;9034;50.284;19.310;2022-12-19T05:45:18;67.47;;;22.90;;
17818;SDS011;9034;50.284;19.310;2022-12-19T05:46:22;71.13;;;23.17;;
17818;SDS011;9034;50.284;19.310;2022-12-19T05:47:24;69.60;;;21.65;;
17818;SDS011;9034;50.284;19.310;2022-12-19T05:48:27;66.57;;;23.85;;
17818;SDS011;9034;50.284;19.310;2022-12-19T05:49:29;67.82;;;24.40;;
17818;SDS011;9034;50.284;19.310;2022-12-19T05:50:32;60.85;;;24.35;;
17818;SDS011;9034;50.284;19.310;2022-12-19T05:51:45;63.13;;;22.58;;
17818;SDS011;9034;50.284;19.310;2022-12-19T05:52:50;60.33;;;21.58;;
17818;SDS011;9034;50.284;19.310;2022-12-19T05:53:52;60.08;;;21.58;;
17818;SDS011;9034;50.284;19.310;2022-12-19T05:54:55;69.20;;;22.90;;
17818;SDS011;9034;50.284;19.310;2022-12-19T05:56:03;59.85;;;20.85;;
17818;SDS011;9034;50.284;19.310;2022-12-19T05:57:09;73.43;;;22.58;;
17818;SDS011;9034;50.284;19.310;2022-12-19T05:58:11;60.17;;;21.33;;
17818;SDS011;9034;50.284;19.310;2022-12-19T05:59:14;57.20;;;20.17;;
17818;SDS011;9034;50.284;19.310;2022-12-19T06:00:17;63.63;;;21.48;;
17818;SDS011;9034;50.284;19.310;2022-12-19T06:01:21;64.45;;;22.10;;
17818;SDS011;9034;50.284;19.310;2022-12-19T06:02:25;57.00;;;20.00;;
17818;SDS011;9034;50.284;19.310;2022-12-19T06:03:27;49.88;;;19.60;;
17818;SDS011;9034;50.284;19.310;2022-12-19T06:04:31;59.63;;;21.73;;
17818;SDS011;9034;50.284;19.310;2022-12-19T06:05:35;59.95;;;20.50;;
17818;SDS011;9034;50.284;19.310;2022-12-19T06:06:57;68.13;;;23.00;;
17818;SDS011;9034;50.284;19.310;2022-12-19T06:08:02;44.83;;;18.27;;
17818;SDS011;9034;50.284;19.310;2022-12-19T06:09:04;63.97;;;21.48;;
17818;SDS011;9034;50.284;19.310;2022-12-19T06:10:07;54.50;;;18.73;;
17818;SDS011;9034;50.284;19.310;2022-12-19T06:11:10;44.17;;;17.75;;
17818;SDS011;9034;50.284;19.310;2022-12-19T06:12:13;53.35;;;22.55;;
17818;SDS011;9034;50.284;19.310;2022-12-19T06:13:15;76.80;;;29.75;;
17818;SDS011;9034;50.284;19.310;2022-12-19T06:14:25;82.32;;;31.75;;
17818;SDS011;9034;50.284;19.310;2022-12-19T06:15:27;64.78;;;24.63;;
17818;SDS011;9034;50.284;19.310;2022-12-19T06:16:30;70.72;;;25.15;;
17818;SDS011;9034;50.284;19.310;2022-12-19T06:17:33;49.20;;;20.67;;
17818;SDS011;9034;50.284;19.310;2022-12-19T06:18:36;50.67;;;20.80;;
17818;SDS011;9034;50.284;19.310;2022-12-19T06:19:45;61.72;;;23.30;;
17818;SDS011;9034;50.284;19.310;2022-12-19T06:20:53;57.25;;;22.85;;
17818;SDS011;9034;50.284;19.310;2022-12-19T06:21:57;64.55;;;23.48;;
17818;SDS011;9034;50.284;19.310;2022-12-19T06:23:01;59.38;;;21.40;;
17818;SDS011;9034;50.284;19.310;2022-12-19T06:24:05;56.47;;;22.88;;
17818;SDS011;9034;50.284;19.310;2022-12-19T06:25:08;52.60;;;20.75;;
17818;SDS011;9034;50.284;19.310;2022-12-19T06:26:19;54.25;;;20.50;;
17818;SDS011;9034;50.284;19.310;2022-12-19T06:27:22;55.50;;;20.08;;